| time (UTC) | temp F | wind direction | speed knots | gust knots | rain 1hr in | rain 24hr in | rain mn in | humidity % | barometer mb |
| 20260509151213 | 47 | 27 | 2.6 | 2.6 | 0.00 | 0.03 | 0.03 | 54 | 1015.8 |
| 20260509150710 | 47 | 54 | 0.9 | 0.9 | 0.00 | 0.03 | 0.03 | 58 | 1015.4 |
| 20260509150209 | 47 | 28 | 3.5 | 4.3 | 0.00 | 0.03 | 0.03 | 61 | 1015.5 |
| 20260509145704 | 46 | 42 | 3.5 | 4.3 | 0.00 | 0.03 | 0.03 | 58 | 1015.4 |
| 20260509145200 | 47 | 28 | 1.7 | 2.6 | 0.00 | 0.03 | 0.03 | 63 | 1015.5 |
| 20260509144656 | 46 | 62 | 0.9 | 1.7 | 0.00 | 0.03 | 0.03 | 64 | 1015.3 |
| 20260509144154 | 46 | 52 | 4.3 | 4.3 | 0.00 | 0.03 | 0.03 | 68 | 1015.2 |
| 20260509143651 | 45 | 315 | 2.6 | 4.3 | 0.00 | 0.03 | 0.03 | 72 | 1015.3 |
| 20260509143149 | 45 | 345 | 5.2 | 7.0 | 0.00 | 0.03 | 0.03 | 75 | 1015.3 |
| 20260509142644 | 45 | 327 | 5.2 | 6.1 | 0.00 | 0.03 | 0.03 | 76 | 1015.2 |
| 20260509142141 | 44 | 14 | 3.5 | 4.3 | 0.00 | 0.03 | 0.03 | 78 | 1015.1 |
| 20260509141636 | 44 | 323 | 2.6 | 2.6 | 0.00 | 0.03 | 0.03 | 76 | 1015.2 |
| 20260509141133 | 44 | 345 | 2.6 | 2.6 | 0.00 | 0.03 | 0.03 | 77 | 1015.0 |
| 20260509140630 | 43 | 11 | 2.6 | 4.3 | 0.00 | 0.03 | 0.03 | 78 | 1015.0 |
| 20260509140128 | 43 | 283 | 0.9 | 0.9 | 0.00 | 0.03 | 0.03 | 83 | 1015.0 |
| 20260509135625 | 43 | 308 | 2.6 | 2.6 | 0.00 | 0.03 | 0.03 | 84 | 1014.9 |
| 20260509135123 | 42 | 16 | 2.6 | 4.3 | 0.00 | 0.03 | 0.03 | 85 | 1014.4 |
| 20260509134619 | 42 | 328 | 1.7 | 1.7 | 0.00 | 0.03 | 0.03 | 86 | 1014.6 |
| 20260509134117 | 42 | 335 | 2.6 | 2.6 | 0.00 | 0.03 | 0.03 | 86 | 1014.6 |
| 20260509133614 | 42 | 342 | 2.6 | 2.6 | 0.00 | 0.03 | 0.03 | 87 | 1014.3 |
| 20260509133111 | 42 | 344 | 2.6 | 2.6 | 0.00 | 0.03 | 0.03 | 87 | 1014.3 |
| 20260509132609 | 41 | 336 | 2.6 | 2.6 | 0.00 | 0.03 | 0.03 | 88 | 1014.2 |
| 20260509132108 | 41 | 312 | 2.6 | 2.6 | 0.00 | 0.03 | 0.03 | 88 | 1014.1 |
| 20260509131603 | 41 | 316 | 2.6 | 2.6 | 0.00 | 0.03 | 0.03 | 88 | 1014.3 |
| 20260509131100 | 40 | 316 | 2.6 | 2.6 | 0.00 | 0.03 | 0.03 | 89 | 1014.2 |
| 20260509130556 | 40 | 310 | 2.6 | 2.6 | 0.00 | 0.03 | 0.03 | 89 | 1013.8 |
| 20260509130053 | 39 | 325 | 2.6 | 2.6 | 0.00 | 0.03 | 0.03 | 89 | 1013.7 |
| 20260509125549 | 39 | 313 | 3.5 | 4.3 | 0.00 | 0.03 | 0.03 | 89 | 1013.6 |
| 20260509125046 | 38 | 313 | 2.6 | 2.6 | 0.00 | 0.03 | 0.03 | 90 | 1013.6 |
| 20260509124542 | 38 | 329 | 1.7 | 1.7 | 0.00 | 0.03 | 0.03 | 90 | 1013.6 |
| 20260509124040 | 37 | 304 | 1.7 | 1.7 | 0.00 | 0.03 | 0.03 | 90 | 1013.5 |
| 20260509123538 | 37 | 289 | 1.7 | 1.7 | 0.00 | 0.03 | 0.03 | 90 | 1013.4 |
| 20260509123034 | 37 | 311 | 1.7 | 1.7 | 0.00 | 0.03 | 0.03 | 90 | 1013.0 |
| 20260509122530 | 36 | 321 | 2.6 | 2.6 | 0.00 | 0.03 | 0.03 | 90 | 1013.3 |
| 20260509122027 | 36 | 327 | 2.6 | 2.6 | 0.00 | 0.03 | 0.03 | 90 | 1012.7 |
| 20260509121524 | 36 | 292 | 1.7 | 1.7 | 0.00 | 0.03 | 0.03 | 90 | 1012.9 |
| 20260509121021 | 36 | 323 | 2.6 | 2.6 | 0.00 | 0.03 | 0.03 | 90 | 1012.9 |
| 20260509120520 | 36 | 309 | 2.6 | 2.6 | 0.00 | 0.03 | 0.03 | 90 | 1012.5 |
| 20260509120017 | 36 | 320 | 2.6 | 2.6 | 0.00 | 0.03 | 0.03 | 90 | 1012.6 |
| 20260509115514 | 36 | 338 | 2.6 | 4.3 | 0.00 | 0.03 | 0.03 | 90 | 1012.3 |
| 20260509115012 | 36 | 338 | 3.5 | 4.3 | 0.00 | 0.03 | 0.03 | 90 | 1012.4 |
| 20260509114510 | 36 | 318 | 4.3 | 6.1 | 0.00 | 0.03 | 0.03 | 91 | 1012.3 |
| 20260509114009 | 36 | 342 | 2.6 | 2.6 | 0.00 | 0.03 | 0.03 | 91 | 1011.9 |
| 20260509113506 | 36 | 313 | 1.7 | 1.7 | 0.00 | 0.03 | 0.03 | 91 | 1011.9 |
| 20260509113004 | 36 | 8 | 2.6 | 2.6 | 0.00 | 0.03 | 0.03 | 91 | 1011.8 |
| 20260509112500 | 36 | 359 | 2.6 | 2.6 | 0.00 | 0.03 | 0.03 | 91 | 1011.9 |
| 20260509111956 | 36 | 8 | 2.6 | 2.6 | 0.00 | 0.03 | 0.03 | 91 | 1011.7 |
| 20260509111454 | 36 | 9 | 3.5 | 4.3 | 0.00 | 0.03 | 0.03 | 91 | 1011.7 |
| 20260509110951 | 36 | 12 | 3.5 | 4.3 | 0.00 | 0.03 | 0.03 | 91 | 1011.6 |
| 20260509110447 | 37 | 8 | 1.7 | 2.6 | 0.00 | 0.03 | 0.03 | 91 | 1011.7 |
| 20260509105945 | 37 | 351 | 2.6 | 2.6 | 0.00 | 0.03 | 0.03 | 90 | 1011.6 |
| 20260509105444 | 37 | 344 | 3.5 | 4.3 | 0.00 | 0.03 | 0.03 | 90 | 1011.3 |
| 20260509104940 | 37 | 5 | 1.7 | 1.7 | 0.00 | 0.03 | 0.03 | 90 | 1011.2 |
| 20260509104437 | 37 | 358 | 2.6 | 4.3 | 0.00 | 0.03 | 0.03 | 90 | 1011.4 |
| 20260509103934 | 38 | 3 | 2.6 | 2.6 | 0.00 | 0.03 | 0.03 | 90 | 1011.3 |
| 20260509103432 | 38 | 8 | 2.6 | 2.6 | 0.00 | 0.03 | 0.03 | 90 | 1011.2 |
| 20260509102930 | 38 | 337 | 2.6 | 2.6 | 0.00 | 0.03 | 0.03 | 90 | 1011.3 |
| 20260509102427 | 38 | 358 | 2.6 | 2.6 | 0.00 | 0.03 | 0.03 | 90 | 1011.2 |
| 20260509101923 | 38 | 19 | 4.3 | 5.2 | 0.00 | 0.03 | 0.03 | 90 | 1011.1 |
| 20260509101420 | 38 | 352 | 3.5 | 4.3 | 0.00 | 0.03 | 0.03 | 90 | 1010.8 |
| 20260509100917 | 38 | 350 | 3.5 | 4.3 | 0.00 | 0.03 | 0.03 | 90 | 1010.9 |
| 20260509100414 | 38 | 13 | 2.6 | 4.3 | 0.00 | 0.03 | 0.03 | 90 | 1010.8 |
| 20260509095911 | 38 | 352 | 2.6 | 4.3 | 0.00 | 0.03 | 0.03 | 90 | 1010.9 |
| 20260509095408 | 38 | 349 | 3.5 | 5.2 | 0.00 | 0.03 | 0.03 | 90 | 1010.9 |
| 20260509094905 | 38 | 357 | 3.5 | 4.3 | 0.00 | 0.03 | 0.03 | 90 | 1010.7 |
| 20260509094401 | 39 | 21 | 4.3 | 5.2 | 0.00 | 0.03 | 0.03 | 90 | 1010.5 |
| 20260509093859 | 39 | 3 | 3.5 | 4.3 | 0.00 | 0.03 | 0.03 | 90 | 1010.7 |
| 20260509093356 | 39 | 358 | 5.2 | 6.1 | 0.00 | 0.03 | 0.03 | 90 | 1010.5 |
| 20260509092855 | 39 | 331 | 3.5 | 4.3 | 0.00 | 0.03 | 0.03 | 90 | 1010.6 |
| 20260509092352 | 39 | 12 | 4.3 | 5.2 | 0.00 | 0.03 | 0.03 | 90 | 1010.5 |
| 20260509091850 | 38 | 338 | 4.3 | 5.2 | 0.00 | 0.03 | 0.03 | 90 | 1010.4 |
| 20260509091347 | 39 | 323 | 1.7 | 1.7 | 0.00 | 0.03 | 0.03 | 90 | 1010.3 |
| 20260509090844 | 39 | 326 | 1.7 | 1.7 | 0.00 | 0.03 | 0.03 | 90 | 1010.3 |
| 20260509090341 | 39 | 308 | 0.9 | 1.7 | 0.00 | 0.03 | 0.03 | 90 | 1010.5 |
| 20260509085839 | 39 | 296 | 1.7 | 1.7 | 0.00 | 0.03 | 0.03 | 90 | 1010.2 |
| 20260509085335 | 39 | 312 | 0.9 | 1.7 | 0.00 | 0.03 | 0.03 | 89 | 1010.3 |
| 20260509084832 | 40 | 339 | 2.6 | 2.6 | 0.00 | 0.03 | 0.03 | 89 | 1010.1 |
| 20260509084329 | 40 | 337 | 2.6 | 2.6 | 0.00 | 0.03 | 0.03 | 89 | 1009.9 |
| 20260509083827 | 40 | 344 | 2.6 | 2.6 | 0.00 | 0.03 | 0.03 | 89 | 1009.9 |
| 20260509083323 | 41 | 350 | 3.5 | 4.3 | 0.00 | 0.03 | 0.03 | 89 | 1009.8 |
| 20260509082820 | 41 | 349 | 2.6 | 2.6 | 0.00 | 0.03 | 0.03 | 89 | 1009.6 |
| 20260509082316 | 41 | 353 | 2.6 | 2.6 | 0.00 | 0.03 | 0.03 | 88 | 1009.6 |
| 20260509081814 | 41 | 353 | 3.5 | 4.3 | 0.00 | 0.03 | 0.03 | 88 | 1009.6 |
| 20260509081311 | 42 | 24 | 4.3 | 6.1 | 0.00 | 0.03 | 0.03 | 88 | 1009.4 |
| 20260509080809 | 42 | 8 | 2.6 | 2.6 | 0.00 | 0.03 | 0.03 | 88 | 1009.5 |
| 20260509080306 | 42 | 24 | 2.6 | 2.6 | 0.00 | 0.03 | 0.03 | 88 | 1009.6 |
| 20260509075805 | 42 | 8 | 2.6 | 2.6 | 0.00 | 0.03 | 0.03 | 88 | 1009.5 |
| 20260509075305 | 42 | 14 | 2.6 | 2.6 | 0.00 | 0.03 | 0.03 | 88 | 1009.6 |
| 20260509074759 | 43 | 33 | 1.7 | 1.7 | 0.00 | 0.03 | 0.03 | 88 | 1009.3 |
| 20260509074256 | 43 | 356 | 1.7 | 1.7 | 0.00 | 0.03 | 0.03 | 88 | 1009.4 |
| 20260509073752 | 44 | 27 | 1.7 | 1.7 | 0.00 | 0.03 | 0.03 | 88 | 1009.2 |
| 20260509073249 | 44 | 7 | 1.7 | 1.7 | 0.00 | 0.03 | 0.03 | 88 | 1009.2 |
| 20260509072745 | 45 | 350 | 5.2 | 5.2 | 0.00 | 0.03 | 0.03 | 88 | 1009.0 |
| 20260509072242 | 45 | 350 | 6.1 | 7.0 | 0.00 | 0.03 | 0.03 | 88 | 1008.9 |
| 20260509071739 | 45 | 359 | 6.1 | 7.8 | 0.00 | 0.03 | 0.03 | 89 | 1008.9 |
| 20260509071236 | 46 | 337 | 4.3 | 6.1 | 0.00 | 0.03 | 0.03 | 89 | 1008.9 |
| 20260509070733 | 46 | 314 | 5.2 | 6.1 | 0.00 | 0.03 | 0.03 | 89 | 1008.6 |
| 20260509070229 | 46 | 343 | 4.3 | 5.2 | 0.00 | 0.03 | 0.03 | 90 | 1008.5 |
| 20260509065726 | 46 | 329 | 4.3 | 6.1 | 0.00 | 0.03 | 0.03 | 90 | 1008.8 |
| 20260509065222 | 46 | 19 | 3.5 | 7.0 | 0.00 | 0.03 | 0.03 | 90 | 1008.6 |
| 20260509064718 | 46 | 346 | 3.5 | 5.2 | 0.00 | 0.03 | 0.03 | 91 | 1008.3 |
| 20260509064216 | 45 | 37 | 2.6 | 4.3 | 0.00 | 0.03 | 0.03 | 91 | 1008.4 |
| 20260509063714 | 45 | 344 | 2.6 | 4.3 | 0.00 | 0.03 | 0.03 | 91 | 1008.2 |
| 20260509063209 | 45 | 7 | 1.7 | 1.7 | 0.00 | 0.03 | 0.03 | 92 | 1008.0 |
| 20260509062707 | 45 | 323 | 1.7 | 2.6 | 0.00 | 0.03 | 0.03 | 92 | 1008.2 |
| 20260509062204 | 45 | 302 | 1.7 | 1.7 | 0.00 | 0.03 | 0.03 | 92 | 1008.3 |
| 20260509061701 | 45 | 324 | 0.9 | 0.9 | 0.00 | 0.03 | 0.03 | 92 | 1008.3 |
| 20260509061158 | 45 | 347 | 0.0 | 0.9 | 0.00 | 0.03 | 0.03 | 91 | 1008.1 |
| 20260509060656 | 45 | 13 | 0.9 | 0.9 | 0.00 | 0.03 | 0.03 | 91 | 1008.1 |
| 20260509060152 | 45 | 329 | 0.9 | 1.7 | 0.00 | 0.03 | 0.03 | 91 | 1008.2 |
| 20260509055647 | 46 | 278 | 0.9 | 0.9 | 0.00 | 0.03 | 0.03 | 91 | 1008.0 |
| 20260509055144 | 46 | 212 | 0.9 | 1.7 | 0.00 | 0.03 | 0.03 | 91 | 1008.1 |
| 20260509054640 | 46 | 288 | 2.6 | 2.6 | 0.00 | 0.03 | 0.03 | 91 | 1008.3 |
| 20260509054138 | 46 | 218 | 2.6 | 2.6 | 0.00 | 0.03 | 0.03 | 91 | 1007.6 |
| 20260509053636 | 46 | 251 | 0.9 | 0.9 | 0.07 | 0.03 | 0.03 | 91 | 1008.1 |
| 20260509053133 | 46 | 245 | 1.7 | 1.7 | 0.07 | 0.03 | 0.03 | 90 | 1008.0 |
| 20260509052631 | 46 | 239 | 1.7 | 1.7 | 0.05 | 0.02 | 0.02 | 90 | 1008.5 |
| 20260509052128 | 46 | 285 | 1.7 | 1.7 | 0.05 | 0.02 | 0.02 | 90 | 1008.3 |
| 20260509051626 | 46 | 308 | 2.6 | 2.6 | 0.07 | 0.01 | 0.01 | 89 | 1009.0 |
| 20260509051123 | 46 | 306 | 1.7 | 2.6 | 0.07 | 0.01 | 0.01 | 89 | 1008.8 |
| 20260509050620 | 46 | 351 | 0.9 | 0.9 | 0.07 | 0.01 | 0.01 | 89 | 1008.9 |
| 20260509050116 | 46 | 324 | 1.7 | 2.6 | 0.00 | 0.01 | 0.01 | 88 | 1008.9 |
| 20260509045614 | 47 | 346 | 0.9 | 1.7 | 0.05 | 0.01 | 0.01 | 87 | 1008.9 |
| 20260509045111 | 47 | 3 | 4.3 | 5.2 | 0.05 | 0.01 | 0.01 | 87 | 1009.2 |
| 20260509044608 | 47 | 358 | 4.3 | 5.2 | 0.00 | 0.00 | 0.00 | 85 | 1009.0 |
| 20260509044105 | 47 | 7 | 3.5 | 4.3 | 0.00 | 0.00 | 0.00 | 83 | 1009.2 |
| 20260509043601 | 48 | 35 | 3.5 | 4.3 | 0.00 | 0.00 | 0.00 | 81 | 1008.5 |
| 20260509043057 | 49 | 15 | 3.5 | 5.2 | 0.00 | 0.00 | 0.00 | 78 | 1008.5 |
| 20260509042553 | 49 | 35 | 6.1 | 7.8 | 0.00 | 0.00 | 0.00 | 75 | 1008.2 |
| 20260509042050 | 49 | 355 | 6.1 | 6.1 | 0.00 | 0.00 | 0.00 | 74 | 1008.2 |
| 20260509041547 | 49 | 21 | 4.3 | 5.2 | 0.00 | 0.00 | 0.00 | 74 | 1008.1 |
| 20260509041044 | 50 | 31 | 4.3 | 5.2 | 0.00 | 0.00 | 0.00 | 73 | 1008.3 |
| 20260509040542 | 50 | 27 | 6.1 | 9.6 | 0.00 | 0.00 | 0.00 | 71 | 1007.9 |
| 20260509040039 | 50 | 43 | 6.1 | 7.8 | 0.00 | 0.00 | 0.00 | 70 | 1007.8 |
| 20260509035536 | 50 | 51 | 7.8 | 9.6 | 0.00 | 0.00 | 0.00 | 70 | 1007.7 |
| 20260509035032 | 51 | 52 | 10.4 | 12.2 | 0.00 | 0.00 | 0.00 | 69 | 1007.5 |
| 20260509034531 | 51 | 44 | 7.0 | 8.7 | 0.00 | 0.00 | 0.00 | 68 | 1007.7 |
| 20260509034027 | 51 | 51 | 9.6 | 11.3 | 0.00 | 0.00 | 0.00 | 67 | 1007.6 |
| 20260509033524 | 51 | 27 | 10.4 | 12.2 | 0.00 | 0.00 | 0.00 | 66 | 1007.6 |
| 20260509033021 | 52 | 30 | 11.3 | 14.8 | 0.00 | 0.00 | 0.00 | 65 | 1007.5 |
| 20260509032519 | 53 | 1 | 13.0 | 15.6 | 0.00 | 0.00 | 0.00 | 63 | 1007.6 |
| 20260509032016 | 54 | 8 | 9.6 | 13.9 | 0.00 | 0.00 | 0.00 | 64 | 1006.9 |
| 20260509031513 | 56 | 19 | 12.2 | 14.8 | 0.00 | 0.00 | 0.00 | 62 | 1006.8 |
| 20260509031010 | 57 | 359 | 7.8 | 7.8 | 0.00 | 0.00 | 0.00 | 58 | 1006.5 |
| 20260509030508 | 57 | 16 | 8.7 | 11.3 | 0.00 | 0.00 | 0.00 | 56 | 1006.4 |
| 20260509030005 | 57 | 0 | 7.0 | 11.3 | 0.00 | 0.00 | 0.00 | 55 | 1006.2 |
| 20260509025500 | 58 | 326 | 7.8 | 9.6 | 0.00 | 0.00 | 0.00 | 54 | 1006.2 |
| 20260509024950 | 58 | 346 | 10.4 | 13.0 | 0.00 | 0.00 | 0.00 | 53 | 1005.9 |
| 20260509024447 | 59 | 317 | 8.7 | 12.2 | 0.00 | 0.00 | 0.00 | 52 | 1005.8 |
| 20260509023944 | 59 | 318 | 8.7 | 11.3 | 0.00 | 0.00 | 0.00 | 52 | 1005.5 |
| 20260509023441 | 58 | 3 | 9.6 | 13.9 | 0.00 | 0.00 | 0.00 | 53 | 1005.5 |
| 20260509022938 | 58 | 334 | 13.0 | 15.6 | 0.00 | 0.00 | 0.00 | 54 | 1005.2 |
| 20260509022435 | 59 | 358 | 11.3 | 13.0 | 0.00 | 0.00 | 0.00 | 53 | 1005.2 |
| 20260509021932 | 60 | 333 | 13.9 | 17.4 | 0.00 | 0.00 | 0.00 | 52 | 1005.3 |
| 20260509021429 | 62 | 353 | 13.0 | 15.6 | 0.00 | 0.00 | 0.00 | 47 | 1005.1 |
| 20260509020926 | 64 | 302 | 13.0 | 14.8 | 0.00 | 0.00 | 0.00 | 37 | 1004.5 |
| 20260509020424 | 65 | 279 | 7.8 | 11.3 | 0.00 | 0.00 | 0.00 | 38 | 1004.5 |
| 20260509015921 | 62 | 277 | 7.8 | 9.6 | 0.00 | 0.00 | 0.00 | 39 | 1004.6 |
| 20260509015420 | 62 | 298 | 4.3 | 5.2 | 0.00 | 0.00 | 0.00 | 42 | 1004.6 |
| 20260509014915 | 62 | 295 | 3.5 | 4.3 | 0.00 | 0.00 | 0.00 | 41 | 1004.1 |
| 20260509014407 | 62 | 301 | 1.7 | 2.6 | 0.00 | 0.00 | 0.00 | 42 | 1004.3 |
| 20260509013904 | 62 | 232 | 3.5 | 5.2 | 0.00 | 0.00 | 0.00 | 41 | 1004.0 |
| 20260509013401 | 62 | 245 | 2.6 | 2.6 | 0.00 | 0.00 | 0.00 | 41 | 1004.2 |
| 20260509012856 | 62 | 251 | 3.5 | 4.3 | 0.00 | 0.00 | 0.00 | 41 | 1004.1 |
| 20260509012353 | 62 | 187 | 2.6 | 2.6 | 0.00 | 0.00 | 0.00 | 42 | 1004.3 |
| 20260509011850 | 62 | 263 | 1.7 | 1.7 | 0.00 | 0.00 | 0.00 | 42 | 1004.3 |
| 20260509011348 | 63 | 286 | 1.7 | 1.7 | 0.00 | 0.00 | 0.00 | 40 | 1004.3 |
| 20260509010846 | 63 | 278 | 1.7 | 1.7 | 0.00 | 0.00 | 0.00 | 40 | 1004.2 |
| 20260509010343 | 63 | 299 | 3.5 | 4.3 | 0.00 | 0.00 | 0.00 | 39 | 1004.4 |
| 20260509005839 | 63 | 280 | 2.6 | 2.6 | 0.00 | 0.00 | 0.00 | 40 | 1004.4 |
| 20260509005338 | 63 | 292 | 2.6 | 2.6 | 0.00 | 0.00 | 0.00 | 40 | 1004.4 |
| 20260509004838 | 64 | 242 | 1.7 | 1.7 | 0.00 | 0.00 | 0.00 | 39 | 1004.6 |
| 20260509004334 | 64 | 297 | 0.0 | 1.7 | 0.00 | 0.00 | 0.00 | 39 | 1004.7 |
| 20260509003832 | 65 | 282 | 3.5 | 5.2 | 0.00 | 0.00 | 0.00 | 37 | 1005.0 |
| 20260509003330 | 66 | 287 | 4.3 | 6.1 | 0.00 | 0.00 | 0.00 | 36 | 1004.8 |
| 20260509002826 | 67 | 297 | 7.0 | 9.6 | 0.00 | 0.00 | 0.00 | 34 | 1004.9 |
| 20260509002324 | 67 | 258 | 4.3 | 5.2 | 0.00 | 0.00 | 0.00 | 35 | 1004.8 |
| 20260509001822 | 67 | 270 | 9.6 | 14.8 | 0.00 | 0.00 | 0.00 | 34 | 1005.0 |
| 20260509001317 | 68 | 263 | 9.6 | 11.3 | 0.00 | 0.00 | 0.00 | 32 | 1004.9 |
| 20260509000815 | 69 | 302 | 13.9 | 19.1 | 0.00 | 0.00 | 0.00 | 31 | 1004.8 |
| 20260509000313 | 68 | 303 | 13.0 | 15.6 | 0.00 | 0.00 | 0.00 | 32 | 1004.9 |
| 20260508235809 | 68 | 281 | 7.8 | 9.6 | 0.00 | 0.00 | 0.00 | 33 | 1005.2 |
| 20260508235307 | 68 | 295 | 7.0 | 8.7 | 0.00 | 0.00 | 0.00 | 32 | 1005.1 |
| 20260508234803 | 68 | 278 | 5.2 | 7.0 | 0.00 | 0.00 | 0.00 | 33 | 1005.2 |
| 20260508234259 | 68 | 282 | 7.0 | 7.8 | 0.00 | 0.00 | 0.00 | 32 | 1005.2 |
| 20260508233753 | 68 | 287 | 5.2 | 7.0 | 0.00 | 0.00 | 0.00 | 33 | 1005.6 |
| 20260508233251 | 68 | 293 | 8.7 | 8.7 | 0.00 | 0.00 | 0.00 | 32 | 1005.2 |
| 20260508232748 | 69 | 302 | 7.8 | 9.6 | 0.00 | 0.00 | 0.00 | 33 | 1005.5 |
| 20260508232244 | 68 | 268 | 7.0 | 7.8 | 0.00 | 0.00 | 0.00 | 33 | 1005.1 |
| 20260508231743 | 68 | 282 | 4.3 | 6.1 | 0.00 | 0.00 | 0.00 | 33 | 1005.7 |
| 20260508231239 | 67 | 289 | 4.3 | 6.1 | 0.00 | 0.00 | 0.00 | 34 | 1005.6 |
| 20260508230736 | 68 | 275 | 6.1 | 8.7 | 0.00 | 0.00 | 0.00 | 33 | 1005.8 |
| 20260508230232 | 68 | 268 | 6.1 | 7.8 | 0.00 | 0.00 | 0.00 | 33 | 1005.7 |
| 20260508225730 | 69 | 269 | 9.6 | 12.2 | 0.00 | 0.00 | 0.00 | 31 | 1006.0 |
| 20260508225226 | 69 | 273 | 7.0 | 7.8 | 0.00 | 0.00 | 0.00 | 33 | 1005.7 |
| 20260508224724 | 70 | 295 | 12.2 | 17.4 | 0.00 | 0.00 | 0.00 | 31 | 1006.0 |
| 20260508224221 | 71 | 330 | 7.8 | 9.6 | 0.00 | 0.00 | 0.00 | 30 | 1005.9 |
| 20260508223719 | 71 | 206 | 7.0 | 7.8 | 0.00 | 0.00 | 0.00 | 31 | 1006.1 |
| 20260508223216 | 70 | 278 | 7.0 | 7.8 | 0.00 | 0.00 | 0.00 | 33 | 1006.1 |
| 20260508222713 | 68 | 253 | 9.6 | 11.3 | 0.00 | 0.00 | 0.00 | 31 | 1006.3 |
| 20260508222211 | 69 | 308 | 9.6 | 11.3 | 0.00 | 0.00 | 0.00 | 32 | 1006.5 |
| 20260508221707 | 69 | 284 | 7.8 | 8.7 | 0.00 | 0.00 | 0.00 | 31 | 1006.3 |
| 20260508221203 | 71 | 277 | 7.0 | 8.7 | 0.00 | 0.00 | 0.00 | 31 | 1006.2 |
| 20260508220659 | 71 | 289 | 8.7 | 11.3 | 0.00 | 0.00 | 0.00 | 31 | 1006.5 |
| 20260508220156 | 70 | 297 | 9.6 | 12.2 | 0.00 | 0.00 | 0.00 | 30 | 1006.6 |
| 20260508215652 | 69 | 314 | 11.3 | 15.6 | 0.00 | 0.00 | 0.00 | 31 | 1006.8 |
| 20260508215149 | 69 | 303 | 6.1 | 7.8 | 0.00 | 0.00 | 0.00 | 32 | 1006.7 |
| 20260508214646 | 69 | 294 | 8.7 | 12.2 | 0.00 | 0.00 | 0.00 | 33 | 1007.0 |
| 20260508214143 | 69 | 322 | 10.4 | 12.2 | 0.00 | 0.00 | 0.00 | 33 | 1007.1 |
| 20260508213640 | 70 | 257 | 9.6 | 11.3 | 0.00 | 0.00 | 0.00 | 32 | 1007.0 |
| 20260508213136 | 70 | 313 | 7.0 | 8.7 | 0.00 | 0.00 | 0.00 | 33 | 1007.2 |
| 20260508212633 | 69 | 305 | 9.6 | 11.3 | 0.00 | 0.00 | 0.00 | 32 | 1007.1 |
| 20260508212129 | 70 | 286 | 5.2 | 7.0 | 0.00 | 0.00 | 0.00 | 36 | 1007.2 |
| 20260508211624 | 69 | 294 | 8.7 | 11.3 | 0.00 | 0.00 | 0.00 | 34 | 1007.5 |
| 20260508211121 | 69 | 289 | 10.4 | 13.9 | 0.00 | 0.00 | 0.00 | 34 | 1007.4 |
| 20260508210618 | 68 | 312 | 9.6 | 12.2 | 0.00 | 0.00 | 0.00 | 34 | 1007.7 |
| 20260508210115 | 70 | 322 | 9.6 | 11.3 | 0.00 | 0.00 | 0.00 | 33 | 1007.6 |
| 20260508205612 | 70 | 299 | 9.6 | 12.2 | 0.00 | 0.00 | 0.00 | 34 | 1007.6 |
| 20260508205108 | 69 | 292 | 13.0 | 18.2 | 0.00 | 0.00 | 0.00 | 34 | 1007.7 |
| 20260508204604 | 68 | 258 | 9.6 | 11.3 | 0.00 | 0.00 | 0.00 | 35 | 1007.8 |
| 20260508204100 | 69 | 298 | 10.4 | 13.0 | 0.00 | 0.00 | 0.00 | 34 | 1007.9 |
| 20260508203551 | 68 | 298 | 11.3 | 13.0 | 0.00 | 0.00 | 0.00 | 34 | 1007.8 |
| 20260508203047 | 66 | 344 | 7.8 | 9.6 | 0.00 | 0.00 | 0.00 | 34 | 1008.0 |
| 20260508202544 | 67 | 325 | 9.6 | 12.2 | 0.00 | 0.00 | 0.00 | 34 | 1008.1 |
| 20260508202041 | 66 | 276 | 8.7 | 9.6 | 0.00 | 0.00 | 0.00 | 36 | 1008.0 |
| 20260508201538 | 66 | 313 | 7.0 | 7.8 | 0.00 | 0.00 | 0.00 | 36 | 1008.1 |
| 20260508201034 | 67 | 303 | 8.7 | 8.7 | 0.00 | 0.00 | 0.00 | 35 | 1008.1 |
| 20260508200532 | 69 | 288 | 11.3 | 13.0 | 0.00 | 0.00 | 0.00 | 34 | 1008.3 |
| 20260508200027 | 68 | 326 | 9.6 | 12.2 | 0.00 | 0.00 | 0.00 | 35 | 1008.2 |
| 20260508195524 | 67 | 10 | 7.8 | 8.7 | 0.00 | 0.00 | 0.00 | 35 | 1008.2 |
| 20260508195020 | 69 | 309 | 7.8 | 7.8 | 0.00 | 0.00 | 0.00 | 35 | 1008.3 |
| 20260508194518 | 68 | 268 | 11.3 | 14.8 | 0.00 | 0.00 | 0.00 | 36 | 1008.2 |
| 20260508194015 | 68 | 297 | 8.7 | 13.9 | 0.00 | 0.00 | 0.00 | 36 | 1008.4 |
| 20260508193511 | 67 | 303 | 9.6 | 14.8 | 0.00 | 0.00 | 0.00 | 35 | 1008.3 |
| 20260508193008 | 66 | 318 | 12.2 | 15.6 | 0.00 | 0.00 | 0.00 | 37 | 1008.3 |
| 20260508192504 | 67 | 292 | 10.4 | 12.2 | 0.00 | 0.00 | 0.00 | 36 | 1008.4 |
| 20260508192001 | 66 | 299 | 7.0 | 8.7 | 0.00 | 0.00 | 0.00 | 36 | 1008.5 |
| 20260508191458 | 66 | 320 | 5.2 | 7.8 | 0.00 | 0.00 | 0.00 | 39 | 1008.6 |
| 20260508190955 | 65 | 304 | 10.4 | 12.2 | 0.00 | 0.00 | 0.00 | 37 | 1008.6 |
| 20260508190452 | 66 | 5 | 6.1 | 7.8 | 0.00 | 0.00 | 0.00 | 38 | 1008.6 |
| 20260508185948 | 66 | 338 | 9.6 | 12.2 | 0.00 | 0.00 | 0.00 | 37 | 1008.6 |
| 20260508185446 | 66 | 322 | 14.8 | 17.4 | 0.00 | 0.00 | 0.00 | 35 | 1008.8 |
| 20260508184943 | 67 | 350 | 7.8 | 8.7 | 0.00 | 0.00 | 0.00 | 37 | 1008.8 |
| 20260508184441 | 67 | 313 | 7.0 | 7.8 | 0.00 | 0.00 | 0.00 | 37 | 1008.8 |
| 20260508183937 | 66 | 306 | 8.7 | 12.2 | 0.00 | 0.00 | 0.00 | 36 | 1008.8 |
| 20260508183434 | 66 | 323 | 7.0 | 11.3 | 0.00 | 0.00 | 0.00 | 38 | 1008.9 |
| 20260508182929 | 66 | 329 | 11.3 | 14.8 | 0.00 | 0.00 | 0.00 | 37 | 1008.7 |
| 20260508182426 | 66 | 290 | 12.2 | 13.9 | 0.00 | 0.00 | 0.00 | 36 | 1008.8 |
| 20260508181921 | 65 | 39 | 8.7 | 9.6 | 0.00 | 0.00 | 0.00 | 37 | 1008.9 |
| 20260508181418 | 66 | 326 | 13.0 | 15.6 | 0.00 | 0.00 | 0.00 | 36 | 1008.7 |
| 20260508180916 | 65 | 339 | 9.6 | 13.0 | 0.00 | 0.00 | 0.00 | 36 | 1008.9 |
| 20260508180412 | 66 | 3 | 8.7 | 11.3 | 0.00 | 0.00 | 0.00 | 36 | 1008.8 |
| 20260508175908 | 65 | 303 | 8.7 | 11.3 | 0.00 | 0.00 | 0.00 | 36 | 1008.9 |
| 20260508175405 | 66 | 2 | 16.5 | 20.0 | 0.00 | 0.00 | 0.00 | 34 | 1009.0 |
| 20260508174903 | 65 | 12 | 7.8 | 8.7 | 0.00 | 0.00 | 0.00 | 36 | 1009.0 |
| 20260508174400 | 65 | 344 | 12.2 | 15.6 | 0.00 | 0.00 | 0.00 | 36 | 1009.0 |
| 20260508173856 | 65 | 8 | 13.0 | 15.6 | 0.00 | 0.00 | 0.00 | 36 | 1009.0 |
| 20260508173354 | 65 | 320 | 13.9 | 20.0 | 0.00 | 0.00 | 0.00 | 36 | 1009.0 |
| 20260508172849 | 65 | 314 | 9.6 | 13.0 | 0.00 | 0.00 | 0.00 | 36 | 1009.3 |
| 20260508172347 | 64 | 294 | 8.7 | 11.3 | 0.00 | 0.00 | 0.00 | 37 | 1008.9 |
| 20260508171843 | 64 | 313 | 13.0 | 15.6 | 0.00 | 0.00 | 0.00 | 36 | 1009.0 |
| 20260508171339 | 64 | 338 | 7.0 | 8.7 | 0.00 | 0.00 | 0.00 | 36 | 1009.3 |
| 20260508170836 | 64 | 356 | 9.6 | 9.6 | 0.00 | 0.00 | 0.00 | 37 | 1009.6 |
| 20260508170335 | 64 | 293 | 11.3 | 14.8 | 0.00 | 0.00 | 0.00 | 36 | 1009.4 |
| 20260508165831 | 63 | 317 | 7.8 | 11.3 | 0.00 | 0.00 | 0.00 | 37 | 1009.5 |
| 20260508165328 | 63 | 327 | 9.6 | 13.0 | 0.00 | 0.00 | 0.00 | 37 | 1009.5 |
| 20260508164824 | 63 | 356 | 9.6 | 12.2 | 0.00 | 0.00 | 0.00 | 37 | 1009.4 |
| 20260508164321 | 63 | 291 | 7.8 | 11.3 | 0.00 | 0.00 | 0.00 | 38 | 1009.5 |
| 20260508163819 | 63 | 288 | 8.7 | 14.8 | 0.00 | 0.00 | 0.00 | 39 | 1009.3 |
| 20260508163316 | 63 | 306 | 8.7 | 11.3 | 0.00 | 0.00 | 0.00 | 39 | 1009.2 |
| 20260508162812 | 62 | 3 | 6.1 | 7.8 | 0.00 | 0.00 | 0.00 | 39 | 1009.2 |
| 20260508162309 | 62 | 298 | 7.0 | 8.7 | 0.00 | 0.00 | 0.00 | 40 | 1009.2 |
| 20260508161806 | 62 | 312 | 7.8 | 9.6 | 0.00 | 0.00 | 0.00 | 40 | 1009.0 |
| 20260508161303 | 62 | 314 | 6.1 | 6.1 | 0.00 | 0.00 | 0.00 | 40 | 1009.3 |
| 20260508160801 | 62 | 351 | 7.0 | 11.3 | 0.00 | 0.00 | 0.00 | 41 | 1009.3 |
| 20260508160259 | 61 | 314 | 13.9 | 18.2 | 0.00 | 0.00 | 0.00 | 40 | 1009.3 |
| 20260508155755 | 61 | 303 | 10.4 | 12.2 | 0.00 | 0.00 | 0.00 | 40 | 1009.2 |
| 20260508155252 | 60 | 316 | 7.0 | 8.7 | 0.00 | 0.00 | 0.00 | 42 | 1009.4 |
| 20260508154749 | 60 | 353 | 10.4 | 13.0 | 0.00 | 0.00 | 0.00 | 41 | 1008.9 |
| 20260508154247 | 60 | 307 | 10.4 | 12.2 | 0.00 | 0.00 | 0.00 | 40 | 1009.2 |
| 20260508153743 | 60 | 345 | 10.4 | 12.2 | 0.00 | 0.00 | 0.00 | 41 | 1008.9 |
| 20260508153241 | 60 | 319 | 7.8 | 8.7 | 0.00 | 0.00 | 0.00 | 42 | 1009.4 |
| 20260508152737 | 59 | 332 | 10.4 | 13.0 | 0.00 | 0.00 | 0.00 | 41 | 1009.3 |
| 20260508152233 | 60 | 292 | 7.8 | 9.6 | 0.00 | 0.00 | 0.00 | 41 | 1009.3 |
| 20260508151729 | 59 | 300 | 9.6 | 11.3 | 0.00 | 0.00 | 0.00 | 41 | 1009.3 |